Frances Anne — WDE8555 — position and weather

sailwx.info

Track history (hours):
 
Tides and Currents Weather Stations Pressure Air Temp Water Temp Dewpoint Dewpoint Depression Visibility Wind Speed Wind Dir Waves Ship Positions

Frances Anne

Owner: Frances Anne Inc., West Creek, NJ. More information available from US FCC via Universal Licensing System and Coast Guard Vessel Documentation Center.

Last reported at 2016-May-21 14:18 UTC. Time now 2016-May-26 04:40 UTC.
Position N 39°21' W 072°16'.

Type: Fishing. MMSI: 367406910.

Date/timePositionNaut miles runAvg speedWind from/ knotsBaromVisibWave heightAir tempDewpointWater temp
2016-May-21 14:18N 39°21' W 072°16'2 2.1
2016-May-21 13:33N 39°23' W 072°15'1 0.8
2016-May-21 12:32N 39°22' W 072°15'4 3.7
2016-May-21 11:32N 39°19' W 072°19'2 2.4
2016-May-21 10:33N 39°21' W 072°18'53 1.6
2016-May-20 01:33N 39°37' W 073°23'9 7.5
2016-May-20 00:25N 39°39' W 073°33'7 7.5
2016-May-19 23:32N 39°41' W 073°42'8 7.3
2016-May-19 22:23N 39°43' W 073°52'6 7.2
2016-May-19 21:33N 39°45' W 073°60'5 5.1
2016-May-19 20:29N 39°46' W 074°07'0 0.0
2016-May-19 19:23N 39°46' W 074°07'0 0.1
2016-May-19 18:31N 39°46' W 074°07'0 0.0
2016-May-19 17:31N 39°46' W 074°07'0 0.0
2016-May-19 16:31N 39°46' W 074°07'0 0.0
2016-May-19 15:25N 39°46' W 074°07'0 0.0
2016-May-19 14:19N 39°46' W 074°07'0 0.0
2016-May-19 13:31N 39°46' W 074°07'0 0.0
2016-May-19 12:25N 39°46' W 074°07'0 0.0
2016-May-19 10:13N 39°46' W 074°07'0 0.0
2016-May-19 09:31N 39°46' W 074°07'0 0.0
2016-May-19 08:31N 39°46' W 074°07'0 0.0
2016-May-19 07:31N 39°46' W 074°07'0 0.0
2016-May-19 06:31N 39°46' W 074°07'0 0.0
2016-May-19 05:31N 39°46' W 074°07'0 0.0
2016-May-19 04:19N 39°46' W 074°07'0 0.0
2016-May-19 03:31N 39°46' W 074°07'0 0.0
2016-May-19 02:25N 39°46' W 074°07'0 0.0
2016-May-19 01:31N 39°46' W 074°07'0 0.0
2016-May-19 00:31N 39°46' W 074°07'0 0.0
2016-May-18 23:31N 39°46' W 074°07'0 0.0
2016-May-18 22:31N 39°46' W 074°07'0 0.0
2016-May-18 21:25N 39°46' W 074°07'0 0.0
2016-May-18 20:19N 39°46' W 074°07'0 0.0
2016-May-18 19:25N 39°46' W 074°07'0 0.0
2016-May-18 18:31N 39°46' W 074°07'0 0.0
2016-May-18 17:25N 39°46' W 074°07'0 0.1
2016-May-18 16:21N 39°46' W 074°07'0 0.1
2016-May-18 15:31N 39°46' W 074°07'0 0.0
2016-May-18 14:13N 39°46' W 074°07'0 0.0
2016-May-18 13:31N 39°46' W 074°07'0 0.0
2016-May-18 12:25N 39°46' W 074°07'0 0.0
2016-May-18 11:31N 39°46' W 074°07'0 0.0
2016-May-18 10:31N 39°46' W 074°07'0 0.0
2016-May-18 09:31N 39°46' W 074°07'0 0.0
2016-May-18 08:31N 39°46' W 074°07'0 0.0
2016-May-18 07:31N 39°46' W 074°07'0 0.0
2016-May-18 06:25N 39°46' W 074°07'0 0.0
2016-May-18 05:31N 39°46' W 074°07'0 0.0
2016-May-18 04:31N 39°46' W 074°07'0 0.0
2016-May-18 03:31N 39°46' W 074°07'0 0.0
2016-May-18 02:25N 39°46' W 074°07'0 0.0
2016-May-18 01:19N 39°46' W 074°07'0 0.0
2016-May-18 00:19N 39°46' W 074°07'0 0.0
2016-May-17 23:31N 39°46' W 074°07'0 0.0
2016-May-17 22:31N 39°46' W 074°07'0 0.0
2016-May-17 21:31N 39°46' W 074°07'0 0.0
2016-May-17 20:13N 39°46' W 074°07'0 0.1
2016-May-17 18:26N 39°46' W 074°07'0 0.0
2016-May-17 16:32N 39°46' W 074°07'2 1.6
2016-May-17 15:33N 39°45' W 074°05'7 7.5
2016-May-17 14:33N 39°43' W 073°55'9 7.3
2016-May-17 13:15N 39°41' W 073°44'27 7.0
2016-May-17 09:23N 39°33' W 073°10'  
Track history (hours):
 
Tides and Currents Weather Stations Pressure Air Temp Water Temp Dewpoint Dewpoint Depression Visibility Wind Speed Wind Dir Waves Ship Positions

Frances Anne

Owner: Frances Anne Inc., West Creek, NJ. More information available from US FCC via Universal Licensing System and Coast Guard Vessel Documentation Center.

Last reported at 2016-May-21 14:18 UTC. Time now 2016-May-26 04:40 UTC.
Position N 39°21' W 072°16'.

Type: Fishing. MMSI: 367406910.

Date/timePositionNaut miles runAvg speedWind from/ knotsBaromVisibWave heightAir tempDewpointWater temp
2016-May-21 14:18N 39°21' W 072°16'2 2.1
2016-May-21 13:33N 39°23' W 072°15'1 0.8
2016-May-21 12:32N 39°22' W 072°15'4 3.7
2016-May-21 11:32N 39°19' W 072°19'2 2.4
2016-May-21 10:33N 39°21' W 072°18'53 1.6
2016-May-20 01:33N 39°37' W 073°23'9 7.5
2016-May-20 00:25N 39°39' W 073°33'7 7.5
2016-May-19 23:32N 39°41' W 073°42'8 7.3
2016-May-19 22:23N 39°43' W 073°52'6 7.2
2016-May-19 21:33N 39°45' W 073°60'5 5.1
2016-May-19 20:29N 39°46' W 074°07'0 0.0
2016-May-19 19:23N 39°46' W 074°07'0 0.1
2016-May-19 18:31N 39°46' W 074°07'0 0.0
2016-May-19 17:31N 39°46' W 074°07'0 0.0
2016-May-19 16:31N 39°46' W 074°07'0 0.0
2016-May-19 15:25N 39°46' W 074°07'0 0.0
2016-May-19 14:19N 39°46' W 074°07'0 0.0
2016-May-19 13:31N 39°46' W 074°07'0 0.0
2016-May-19 12:25N 39°46' W 074°07'0 0.0
2016-May-19 10:13N 39°46' W 074°07'0 0.0
2016-May-19 09:31N 39°46' W 074°07'0 0.0
2016-May-19 08:31N 39°46' W 074°07'0 0.0
2016-May-19 07:31N 39°46' W 074°07'0 0.0
2016-May-19 06:31N 39°46' W 074°07'0 0.0
2016-May-19 05:31N 39°46' W 074°07'0 0.0
2016-May-19 04:19N 39°46' W 074°07'0 0.0
2016-May-19 03:31N 39°46' W 074°07'0 0.0
2016-May-19 02:25N 39°46' W 074°07'0 0.0
2016-May-19 01:31N 39°46' W 074°07'0 0.0
2016-May-19 00:31N 39°46' W 074°07'0 0.0
2016-May-18 23:31N 39°46' W 074°07'0 0.0
2016-May-18 22:31N 39°46' W 074°07'0 0.0
2016-May-18 21:25N 39°46' W 074°07'0 0.0
2016-May-18 20:19N 39°46' W 074°07'0 0.0
2016-May-18 19:25N 39°46' W 074°07'0 0.0
2016-May-18 18:31N 39°46' W 074°07'0 0.0
2016-May-18 17:25N 39°46' W 074°07'0 0.1
2016-May-18 16:21N 39°46' W 074°07'0 0.1
2016-May-18 15:31N 39°46' W 074°07'0 0.0
2016-May-18 14:13N 39°46' W 074°07'0 0.0
2016-May-18 13:31N 39°46' W 074°07'0 0.0
2016-May-18 12:25N 39°46' W 074°07'0 0.0
2016-May-18 11:31N 39°46' W 074°07'0 0.0
2016-May-18 10:31N 39°46' W 074°07'0 0.0
2016-May-18 09:31N 39°46' W 074°07'0 0.0
2016-May-18 08:31N 39°46' W 074°07'0 0.0
2016-May-18 07:31N 39°46' W 074°07'0 0.0
2016-May-18 06:25N 39°46' W 074°07'0 0.0
2016-May-18 05:31N 39°46' W 074°07'0 0.0
2016-May-18 04:31N 39°46' W 074°07'0 0.0
2016-May-18 03:31N 39°46' W 074°07'0 0.0
2016-May-18 02:25N 39°46' W 074°07'0 0.0
2016-May-18 01:19N 39°46' W 074°07'0 0.0
2016-May-18 00:19N 39°46' W 074°07'0 0.0
2016-May-17 23:31N 39°46' W 074°07'0 0.0
2016-May-17 22:31N 39°46' W 074°07'0 0.0
2016-May-17 21:31N 39°46' W 074°07'0 0.0
2016-May-17 20:13N 39°46' W 074°07'0 0.1
2016-May-17 18:26N 39°46' W 074°07'0 0.0
2016-May-17 16:32N 39°46' W 074°07'2 1.6
2016-May-17 15:33N 39°45' W 074°05'7 7.5
2016-May-17 14:33N 39°43' W 073°55'9 7.3
2016-May-17 13:15N 39°41' W 073°44'27 7.0
2016-May-17 09:23N 39°33' W 073°10'  

Dump ship's entire track history